Time;durP1;ratioP1;P1;durP2;ratioP2;P2;SDS_P1;SDS_P2;PMS_P1;PMS_P2;Temp;Humidity;BMP_temperature;BMP_pressure;BME280_temperature;BME280_humidity;BME280_pressure;Samples;Min_cycle;Max_cycle;Signal;HPM_P1;HPM_P2
2022/07/16 00:01:24;;;;;;;6.03;4.47;;;;;;;21.41;100.00;99520.46;1782549;79;21042;-74
2022/07/16 00:03:53;;;;;;;;;;;;;;;21.47;100.00;99526.88;1808176;79;20987;-74
2022/07/16 00:06:21;;;;;;;7.97;4.53;;;;;;;21.52;100.00;99533.83;1755273;82;20098;-74
2022/07/16 00:08:49;;;;;;;7.03;4.40;;;;;;;21.55;100.00;99538.27;1755483;82;21066;-75
2022/07/16 00:11:17;;;;;;;6.90;4.10;;;;;;;21.59;100.00;99543.55;1755561;82;21004;-74
2022/07/16 00:13:44;;;;;;;5.78;4.10;;;;;;;21.63;100.00;99541.11;1755213;82;21515;-74
2022/07/16 00:16:13;;;;;;;7.47;4.65;;;;;;;21.67;100.00;99537.30;1755431;82;21058;-74
2022/07/16 00:21:25;;;;;;;8.78;4.70;;;;;;;21.73;100.00;99549.50;1755422;81;21051;-74
2022/07/16 00:23:52;;;;;;;9.95;5.50;;;;;;;21.76;100.00;99550.89;1755473;82;21093;-74
2022/07/16 00:26:19;;;;;;;10.65;6.00;;;;;;;21.78;100.00;99548.73;1730522;81;21472;-75
2022/07/16 00:28:46;;;;;;;9.85;5.78;;;;;;;21.78;100.00;99544.06;1755455;82;20987;-75
2022/07/16 00:31:14;;;;;;;12.58;6.87;;;;;;;21.80;100.00;99552.88;1755172;82;21555;-74
2022/07/16 00:33:41;;;;;;;13.38;6.85;;;;;;;21.82;100.00;99545.75;1755571;82;21035;-74
2022/07/16 00:36:08;;;;;;;11.08;6.53;;;;;;;21.85;100.00;99547.14;1755545;82;21002;-75
2022/07/16 00:38:35;;;;;;;12.30;6.62;;;;;;;21.87;100.00;99554.59;1730423;82;21117;-74
2022/07/16 00:41:02;;;;;;;11.65;6.55;;;;;;;21.89;100.00;99559.31;1720378;82;21123;-74
2022/07/16 00:43:29;;;;;;;11.00;6.12;;;;;;;21.89;100.00;99556.02;1709607;83;21029;-75
2022/07/16 00:45:56;;;;;;;7.62;5.40;;;;;;;21.92;100.00;99554.66;1733990;83;21606;-75
2022/07/16 00:48:24;;;;;;;13.00;5.70;;;;;;;21.91;100.00;99559.89;1734136;83;21049;-75
2022/07/16 00:50:51;;;;;;;11.40;5.90;;;;;;;21.91;100.00;99556.58;1709653;83;21033;-74
2022/07/16 00:53:18;;;;;;;10.05;5.70;;;;;;;21.92;100.00;99557.41;1734027;83;21014;-75
2022/07/16 00:55:44;;;;;;;11.45;5.80;;;;;;;21.90;100.00;99557.69;1706372;83;21007;-75
2022/07/16 00:58:11;;;;;;;10.95;5.80;;;;;;;21.90;100.00;99559.06;1730588;83;21483;-74
2022/07/16 01:00:38;;;;;;;11.22;5.90;;;;;;;21.89;100.00;99561.52;1706463;83;21030;-75
2022/07/16 01:03:05;;;;;;;10.50;5.92;;;;;;;21.88;100.00;99557.64;1739499;82;21542;-74
2022/07/16 01:05:33;;;;;;;9.78;5.47;;;;;;;21.85;100.00;99563.13;1748039;81;21033;-74
2022/07/16 01:08:00;;;;;;;8.13;5.40;;;;;;;21.84;100.00;99566.95;1748073;82;21005;-75
2022/07/16 01:10:27;;;;;;;12.90;6.22;;;;;;;21.81;100.00;99583.97;1748038;82;21338;-73
2022/07/16 01:13:00;;;;;;;11.90;6.83;;;;;;;21.80;100.00;99580.40;1747997;82;21661;-74
2022/07/16 01:15:29;;;;;;;15.43;8.03;;;;;;;21.79;100.00;99582.03;1721439;82;21022;-74
2022/07/16 01:17:56;;;;;;;18.60;10.28;;;;;;;21.76;100.00;99574.27;1748717;82;20993;-75
2022/07/16 01:20:23;;;;;;;20.37;11.48;;;;;;;21.75;100.00;99571.25;1721422;82;21032;-74
2022/07/16 01:22:55;;;;;;;20.90;10.65;;;;;;;21.70;100.00;99572.02;1747754;82;21025;-74
2022/07/16 01:25:22;;;;;;;15.63;9.00;;;;;;;21.67;100.00;99563.44;1747922;82;21096;-75
2022/07/16 01:27:49;;;;;;;17.15;8.20;;;;;;;21.64;100.00;99566.17;1720548;82;21009;-75
2022/07/16 01:30:16;;;;;;;14.25;7.45;;;;;;;21.59;100.00;99558.67;1720533;82;20997;-75
2022/07/16 01:32:43;;;;;;;12.58;6.67;;;;;;;21.56;100.00;99556.98;1747827;82;21077;-75
2022/07/16 01:35:10;;;;;;;11.80;6.72;;;;;;;21.51;100.00;99541.78;1720834;82;21029;-74
2022/07/16 01:37:37;;;;;;;14.93;6.92;;;;;;;21.48;100.00;99536.78;1747085;81;20989;-74
2022/07/16 01:40:06;;;;;;;9.50;5.60;;;;;;;21.43;100.00;99530.11;1780362;77;21016;-75
2022/07/16 01:42:32;;;;;;;11.53;5.45;;;;;;;21.41;100.00;99531.46;1818034;79;21556;-75
2022/07/16 01:45:01;;;;;;;6.95;5.10;;;;;;;21.37;100.00;99521.52;1790600;79;21063;-75
2022/07/16 01:47:28;;;;;;;10.13;5.37;;;;;;;21.34;100.00;99517.07;1818145;79;21008;-75
2022/07/16 01:49:55;;;;;;;11.55;5.20;;;;;;;21.31;100.00;99508.77;1817736;79;21028;-74
2022/07/16 01:52:22;;;;;;;8.20;4.80;;;;;;;21.28;100.00;99514.77;1817937;79;21067;-74
2022/07/16 01:54:52;;;;;;;10.60;4.80;;;;;;;21.24;100.00;99508.95;1790552;79;20980;-74
2022/07/16 01:57:20;;;;;;;9.85;4.90;;;;;;;21.18;100.00;99509.98;1818011;79;21027;-75
2022/07/16 01:59:46;;;;;;;8.38;4.67;;;;;;;21.15;100.00;99506.91;1818045;78;21000;-74
2022/07/16 02:02:13;;;;;;;10.00;4.83;;;;;;;21.11;100.00;99501.64;1790725;79;21008;-74
2022/07/16 02:04:41;;;;;;;7.67;4.78;;;;;;;21.05;100.00;99490.57;1817710;78;21018;-75
2022/07/16 02:07:08;;;;;;;9.13;4.70;;;;;;;20.99;100.00;99479.20;1817945;79;21540;-76
2022/07/16 02:09:36;;;;;;;9.13;5.00;;;;;;;20.96;100.00;99481.63;1817689;78;21091;-75
2022/07/16 02:12:04;;;;;;;7.35;4.62;;;;;;;20.93;100.00;99479.38;1818088;79;20993;-74
2022/07/16 02:14:31;;;;;;;6.60;4.50;;;;;;;20.88;100.00;99458.17;1818018;79;21020;-75
2022/07/16 02:16:58;;;;;;;6.45;4.70;;;;;;;20.85;100.00;99455.37;1817842;79;21502;-75
2022/07/16 02:19:25;;;;;;;11.08;4.92;;;;;;;20.82;100.00;99448.17;1817741;79;20988;-75
2022/07/16 02:21:53;;;;;;;9.43;4.80;;;;;;;20.77;100.00;99450.84;1818090;78;21513;-75
2022/07/16 02:24:20;;;;;;;7.95;5.00;;;;;;;20.70;100.00;99431.82;1817762;78;21004;-74
2022/07/16 02:26:47;;;;;;;7.03;4.67;;;;;;;20.66;100.00;99418.28;1790597;79;21011;-75
2022/07/16 02:29:14;;;;;;;8.10;5.03;;;;;;;20.62;100.00;99409.72;1818133;79;21482;-75
2022/07/16 02:31:41;;;;;;;13.18;8.00;;;;;;;20.59;100.00;99401.97;1817945;79;21052;-76
2022/07/16 02:34:08;;;;;;;19.17;12.13;;;;;;;20.55;100.00;99392.55;1790857;79;21019;-74
2022/07/16 02:36:36;;;;;;;30.05;22.25;;;;;;;20.53;100.00;99382.92;1790655;79;21012;-74
2022/07/16 02:39:03;;;;;;;27.20;19.35;;;;;;;20.53;100.00;99379.62;1817747;78;21067;-75
2022/07/16 02:41:30;;;;;;;29.30;18.75;;;;;;;20.52;100.00;99370.26;1818582;79;20981;-76
2022/07/16 02:43:57;;;;;;;23.60;16.82;;;;;;;20.54;100.00;99362.59;1818598;79;21000;-75
2022/07/16 02:46:24;;;;;;;22.27;14.68;;;;;;;20.53;100.00;99353.53;1818537;78;21010;-75
2022/07/16 02:48:51;;;;;;;19.45;11.63;;;;;;;20.55;100.00;99348.61;1818732;79;21004;-75
2022/07/16 02:51:19;;;;;;;14.40;8.88;;;;;;;20.56;100.00;99350.84;1818331;79;21063;-74
2022/07/16 02:53:47;;;;;;;14.63;9.00;;;;;;;20.55;100.00;99340.38;1793530;79;20999;-75
2022/07/16 02:56:14;;;;;;;18.45;10.43;;;;;;;20.56;100.00;99337.92;1793611;79;21024;-74
2022/07/16 02:58:41;;;;;;;16.30;9.85;;;;;;;20.57;100.00;99331.88;1818328;79;21016;-75
2022/07/16 03:01:09;;;;;;;22.60;12.50;;;;;;;20.58;100.00;99332.19;1818513;78;21020;-75
2022/07/16 03:03:37;;;;;;;16.50;10.93;;;;;;;20.59;100.00;99334.69;1818424;79;21020;-75
2022/07/16 03:06:04;;;;;;;23.80;16.42;;;;;;;20.60;100.00;99328.09;1821187;79;21509;-75
2022/07/16 03:08:31;;;;;;;20.48;12.30;;;;;;;20.61;100.00;99325.67;1818332;79;21012;-75
2022/07/16 03:10:58;;;;;;;18.77;12.00;;;;;;;20.64;100.00;99314.16;1818565;79;20973;-75
2022/07/16 03:13:25;;;;;;;23.40;13.62;;;;;;;20.69;100.00;99311.20;1818122;79;21004;-75
2022/07/16 03:15:53;;;;;;;30.00;18.35;;;;;;;20.70;100.00;99310.95;1793522;79;21007;-74
2022/07/16 03:18:21;;;;;;;39.78;28.80;;;;;;;20.70;100.00;99312.84;1818884;79;21039;-75
2022/07/16 03:20:48;;;;;;;41.55;31.85;;;;;;;20.70;100.00;99311.47;1818466;79;20989;-75
2022/07/16 03:23:15;;;;;;;57.00;44.05;;;;;;;20.69;100.00;99313.95;1818598;79;21542;-75
2022/07/16 03:25:42;;;;;;;55.65;41.90;;;;;;;20.69;100.00;99312.02;1818461;79;21019;-75
2022/07/16 03:28:09;;;;;;;58.25;45.05;;;;;;;20.71;100.00;99310.41;1793387;79;21493;-75
2022/07/16 03:30:36;;;;;;;57.58;45.75;;;;;;;20.71;100.00;99301.61;1793748;79;21039;-74
2022/07/16 03:33:05;;;;;;;59.80;47.43;;;;;;;20.71;100.00;99298.86;1793715;79;21027;-75
2022/07/16 03:35:33;;;;;;;60.43;46.20;;;;;;;20.73;100.00;99297.23;1821243;79;21004;-75
2022/07/16 03:40:46;;;;;;;53.42;42.40;;;;;;;20.73;100.00;99291.74;1820123;78;21059;-75
2022/07/16 03:43:13;;;;;;;57.08;44.10;;;;;;;20.73;100.00;99291.74;1820460;79;21044;-75
2022/07/16 03:45:41;;;;;;;56.37;44.50;;;;;;;20.74;100.00;99295.61;1821093;79;20988;-75
2022/07/16 03:48:09;;;;;;;51.42;39.88;;;;;;;20.74;100.00;99290.12;1820828;79;21506;-75
2022/07/16 03:50:36;;;;;;;51.18;39.10;;;;;;;20.75;100.00;99287.67;1821281;79;21011;-73
2022/07/16 03:53:04;;;;;;;36.10;26.42;;;;;;;20.76;100.00;99287.12;1793765;79;20973;-75
2022/07/16 03:55:31;;;;;;;33.20;24.05;;;;;;;20.75;100.00;99283.55;1821325;78;21052;-74
2022/07/16 03:57:58;;;;;;;32.98;23.35;;;;;;;20.76;100.00;99287.94;1794053;79;21084;-75
2022/07/16 04:00:25;;;;;;;25.52;18.95;;;;;;;20.75;100.00;99282.17;1821330;78;20984;-74
2022/07/16 04:02:52;;;;;;;26.10;17.40;;;;;;;20.76;100.00;99280.25;1820979;79;20988;-76
2022/07/16 04:05:20;;;;;;;23.65;15.58;;;;;;;20.76;100.00;99277.50;1820919;79;21020;-76
2022/07/16 04:07:48;;;;;;;22.07;13.62;;;;;;;20.75;100.00;99279.43;1793732;79;21012;-76
2022/07/16 04:10:16;;;;;;;22.77;14.18;;;;;;;20.76;100.00;99283.82;1820823;79;21004;-76
2022/07/16 04:12:45;;;;;;;24.87;16.75;;;;;;;20.78;100.00;99274.77;1793936;79;21024;-75
2022/07/16 04:15:12;;;;;;;35.28;25.50;;;;;;;20.81;100.00;99276.19;1793896;79;21614;-74
2022/07/16 04:17:39;;;;;;;37.98;28.65;;;;;;;20.83;100.00;99279.51;1793779;79;21040;-75
2022/07/16 04:20:08;;;;;;;45.52;33.35;;;;;;;20.86;100.00;99280.38;1793638;79;21028;-73
2022/07/16 04:22:36;;;;;;;40.08;28.80;;;;;;;20.89;100.00;99272.97;1821198;79;21466;-76
2022/07/16 04:25:04;;;;;;;37.00;25.88;;;;;;;20.90;100.00;99269.70;1821369;79;21055;-76
2022/07/16 04:27:32;;;;;;;31.17;21.17;;;;;;;20.91;100.00;99269.45;1822563;79;20982;-77
2022/07/16 04:30:01;;;;;;;33.75;24.80;;;;;;;20.91;100.00;99262.58;1822971;79;21058;-75
2022/07/16 04:32:28;;;;;;;33.20;25.10;;;;;;;20.92;100.00;99262.84;1823471;79;21022;-75
2022/07/16 04:34:55;;;;;;;39.38;29.48;;;;;;;20.95;100.00;99263.71;1823403;79;21029;-76
2022/07/16 04:37:22;;;;;;;29.80;22.25;;;;;;;20.97;100.00;99260.70;1823021;79;20998;-76
2022/07/16 04:39:50;;;;;;;28.92;20.02;;;;;;;20.99;100.00;99255.78;1823256;79;21093;-77
2022/07/16 04:42:17;;;;;;;25.00;18.87;;;;;;;21.01;100.00;99248.92;1823045;79;21030;-75
2022/07/16 04:44:44;;;;;;;26.87;19.30;;;;;;;21.03;100.00;99255.02;1823359;79;21061;-75
2022/07/16 04:47:11;;;;;;;34.10;24.98;;;;;;;21.04;100.00;99252.53;1823396;79;21002;-75
2022/07/16 04:49:39;;;;;;;27.20;19.50;;;;;;;21.05;100.00;99256.95;1796952;79;21018;-75
2022/07/16 04:52:07;;;;;;;25.30;16.50;;;;;;;21.05;100.00;99258.33;1826547;79;21005;-76
2022/07/16 04:54:34;;;;;;;20.08;12.35;;;;;;;21.08;100.00;99260.27;1824720;79;21033;-75
2022/07/16 04:57:01;;;;;;;14.43;9.20;;;;;;;21.10;100.00;99260.28;1823407;79;21049;-75
2022/07/16 04:59:28;;;;;;;12.25;7.50;;;;;;;21.11;100.00;99255.08;1761010;80;21074;-76
2022/07/16 05:02:56;;;;;;;9.68;6.78;;;;;;;21.13;100.00;99256.20;1756296;82;21029;-75
2022/07/16 05:04:27;;;;;;;12.10;7.72;;;;;;;21.16;100.00;99257.03;1769871;81;21020;-74
2022/07/16 05:06:54;;;;;;;10.68;7.45;;;;;;;21.19;100.00;99258.72;1774018;81;21517;-74
2022/07/16 05:09:21;;;;;;;11.35;7.50;;;;;;;21.22;100.00;99255.45;1721278;81;21031;-75
2022/07/16 05:11:49;;;;;;;9.65;7.70;;;;;;;21.27;100.00;99256.06;1745704;81;21556;-76
2022/07/16 05:14:17;;;;;;;12.03;8.35;;;;;;;21.29;100.00;99252.50;1773517;81;21075;-75
2022/07/16 05:16:44;;;;;;;12.07;7.97;;;;;;;21.34;100.00;99250.36;1773877;81;21019;-76
2022/07/16 05:19:13;;;;;;;11.60;8.15;;;;;;;21.33;100.00;99248.13;1773485;81;21055;-76
2022/07/16 05:21:40;;;;;;;10.15;7.97;;;;;;;21.35;100.00;99237.69;1773835;81;21027;-74
2022/07/16 05:24:11;;;;;;;13.43;9.15;;;;;;;21.39;100.00;99240.78;1773899;81;21035;-74
2022/07/16 05:26:39;;;;;;;14.28;10.18;;;;;;;21.42;100.00;99246.58;1784058;79;20962;-74
2022/07/16 05:29:06;;;;;;;92.60;80.80;;;;;;;21.42;100.00;99240.23;1804143;79;21021;-73
2022/07/16 05:31:34;;;;;;;97.00;86.35;;;;;;;21.42;100.00;99241.61;1773944;79;21073;-74
2022/07/16 05:34:01;;;;;;;112.05;100.27;;;;;;;21.42;100.00;99241.61;1774073;79;21029;-74
2022/07/16 05:36:28;;;;;;;54.77;48.78;;;;;;;21.46;100.00;99235.92;1803355;79;21033;-73
2022/07/16 05:38:56;;;;;;;46.30;37.55;;;;;;;21.53;100.00;99238.42;1773491;79;21057;-75
2022/07/16 05:41:23;;;;;;;69.90;62.25;;;;;;;21.57;100.00;99233.52;1802258;79;21064;-73
2022/07/16 05:43:50;;;;;;;160.82;145.07;;;;;;;21.62;100.00;99243.75;1804442;79;20994;-75
2022/07/16 05:46:17;;;;;;;56.58;50.48;;;;;;;21.64;100.00;99247.05;1774748;79;21041;-74
2022/07/16 05:48:45;;;;;;;35.80;31.23;;;;;;;21.66;100.00;99248.17;1803544;79;21031;-74
2022/07/16 05:51:14;;;;;;;39.42;27.17;;;;;;;21.66;100.00;99254.50;1803711;79;21101;-74
2022/07/16 05:53:41;;;;;;;44.25;36.25;;;;;;;21.66;100.00;99255.88;1804942;79;20986;-75
2022/07/16 05:56:08;;;;;;;53.70;47.85;;;;;;;21.66;100.00;99259.18;1775944;79;21041;-75
2022/07/16 05:58:35;;;;;;;32.25;27.95;;;;;;;21.68;100.00;99263.86;1803505;79;21033;-77
2022/07/16 06:01:02;;;;;;;42.73;36.95;;;;;;;21.72;100.00;99259.48;1804379;79;20998;-74
2022/07/16 06:03:30;;;;;;;62.83;56.13;;;;;;;21.77;100.00;99256.22;1804138;79;21006;-75
2022/07/16 06:05:57;;;;;;;62.65;55.10;;;;;;;21.84;100.00;99257.38;1804385;79;21546;-74
2022/07/16 06:08:24;;;;;;;46.30;41.28;;;;;;;21.89;100.00;99249.16;1773931;79;21041;-75
2022/07/16 06:10:52;;;;;;;31.37;27.17;;;;;;;21.94;100.00;99249.75;1774516;79;21033;-75
2022/07/16 06:13:19;;;;;;;24.82;18.90;;;;;;;21.96;100.00;99264.89;1804370;79;21014;-76
2022/07/16 06:15:50;;;;;;;23.92;18.25;;;;;;;21.94;100.00;99272.59;1804014;79;21049;-76
2022/07/16 06:18:18;;;;;;;24.18;18.35;;;;;;;21.88;100.00;99281.89;1804146;79;21049;-76
2022/07/16 06:20:45;;;;;;;24.00;18.70;;;;;;;21.80;100.00;99287.34;1803907;79;21530;-76
2022/07/16 06:23:12;;;;;;;27.20;20.37;;;;;;;21.69;100.00;99285.61;1803672;79;21594;-74
2022/07/16 06:25:40;;;;;;;28.47;22.30;;;;;;;21.61;100.00;99285.53;1774968;79;21032;-76
2022/07/16 06:28:07;;;;;;;28.12;21.70;;;;;;;21.54;100.00;99280.80;1806678;79;21043;-76
2022/07/16 06:30:34;;;;;;;29.25;22.07;;;;;;;21.48;100.00;99285.13;1756118;81;21112;-76
2022/07/16 06:33:02;;;;;;;29.65;22.10;;;;;;;21.43;100.00;99289.47;1805693;79;21070;-76
2022/07/16 06:35:29;;;;;;;26.52;22.27;;;;;;;21.39;100.00;99282.03;1789027;79;20964;-77
2022/07/16 06:37:56;;;;;;;45.90;31.12;;;;;;;21.37;100.00;99275.41;1809322;78;21018;-76
2022/07/16 06:40:23;;;;;;;33.63;29.85;;;;;;;21.37;100.00;99276.78;1807100;78;21051;-75
2022/07/16 06:42:50;;;;;;;36.53;32.48;;;;;;;21.35;100.00;99277.56;1792738;79;21012;-76
2022/07/16 06:45:19;;;;;;;40.52;30.50;;;;;;;21.35;100.00;99279.48;1803278;79;21024;-76
2022/07/16 06:47:46;;;;;;;26.57;21.52;;;;;;;21.35;100.00;99276.19;1805922;79;21011;-76
2022/07/16 06:50:13;;;;;;;25.05;19.60;;;;;;;21.37;100.00;99278.16;1791813;79;21055;-77
2022/07/16 06:52:41;;;;;;;26.75;22.20;;;;;;;21.42;100.00;99285.61;1800895;78;21528;-76
2022/07/16 06:55:08;;;;;;;23.77;18.35;;;;;;;21.47;100.00;99280.19;1801806;78;84186;-78
2022/07/16 06:57:36;;;;;;;21.70;17.57;;;;;;;21.52;100.00;99278.86;1793344;80;21016;-79
2022/07/16 07:00:05;;;;;;;21.07;16.82;;;;;;;21.52;100.00;99286.29;1793288;80;20955;-87
2022/07/16 07:02:32;;;;;;;20.27;15.23;;;;;;;21.54;100.00;99286.30;1794161;80;20962;-76
2022/07/16 07:04:59;;;;;;;21.23;16.02;;;;;;;21.57;100.00;99284.41;1793782;80;21488;-80
2022/07/16 07:07:26;;;;;;;20.60;16.02;;;;;;;21.61;100.00;99281.96;1793793;79;21039;-81
2022/07/16 07:09:55;;;;;;;20.45;15.90;;;;;;;21.64;100.00;99287.47;1794386;80;21502;-78
2022/07/16 07:12:23;;;;;;;84.58;76.02;;;;;;;21.66;100.00;99283.38;1793649;79;20992;-79
2022/07/16 07:14:50;;;;;;;69.35;62.43;;;;;;;21.68;100.00;99282.56;1793537;79;21015;-82
2022/07/16 07:17:17;;;;;;;131.70;118.87;;;;;;;21.67;100.00;99287.77;1790707;79;20975;-78
2022/07/16 07:19:45;;;;;;;118.42;106.07;;;;;;;21.64;100.00;99287.47;1798875;79;21071;-80
2022/07/16 07:22:12;;;;;;;25.90;21.25;;;;;;;21.61;100.00;99299.28;1795668;79;20987;-78
2022/07/16 07:24:38;;;;;;;33.73;27.55;;;;;;;21.53;100.00;99299.78;1795217;79;20988;-79
2022/07/16 07:27:06;;;;;;;23.35;18.07;;;;;;;21.36;100.00;99301.23;1791054;79;21071;-80
2022/07/16 07:29:33;;;;;;;18.95;14.45;;;;;;;21.21;100.00;99305.19;1792959;80;21006;-79
2022/07/16 07:32:00;;;;;;;17.27;13.55;;;;;;;21.13;100.00;99305.67;1764791;80;21665;-84
2022/07/16 07:34:27;;;;;;;17.23;12.45;;;;;;;21.08;100.00;99294.63;1793699;80;21017;-83
2022/07/16 07:36:53;;;;;;;42.13;33.13;;;;;;;21.09;100.00;99286.64;1799841;79;20975;-77
2022/07/16 07:39:20;;;;;;;78.35;70.62;;;;;;;21.10;100.00;99280.89;1798151;79;21510;-76
2022/07/16 07:41:47;;;;;;;64.15;57.90;;;;;;;21.11;100.00;99275.70;1799942;79;20967;-77
2022/07/16 07:44:14;;;;;;;45.85;40.90;;;;;;;21.13;100.00;99261.70;1793549;79;21330;-75
2022/07/16 07:46:42;;;;;;;28.98;22.02;;;;;;;21.15;100.00;99253.46;1791916;79;20995;-76
2022/07/16 07:49:10;;;;;;;21.27;15.50;;;;;;;21.17;100.00;99238.91;1792439;79;21136;-78
2022/07/16 07:51:37;;;;;;;18.48;13.85;;;;;;;21.20;100.00;99232.90;1797011;79;20995;-83
2022/07/16 07:54:04;;;;;;;18.27;13.83;;;;;;;21.21;100.00;99224.09;1810054;79;20980;-83
2022/07/16 07:56:32;;;;;;;21.30;14.23;;;;;;;21.20;100.00;99219.16;1809935;79;21051;-84
2022/07/16 07:58:59;;;;;;;21.30;14.23;;;;;;;21.22;100.00;99217.52;1810180;79;21046;-80
2022/07/16 08:01:26;;;;;;;22.62;15.55;;;;;;;21.24;100.00;99217.53;1797184;79;21089;-78
2022/07/16 08:03:53;;;;;;;25.55;19.10;;;;;;;21.28;100.00;99213.71;1763001;79;20989;-82
2022/07/16 08:06:20;;;;;;;24.10;19.67;;;;;;;21.30;100.00;99209.33;1784824;79;20967;-80
2022/07/16 08:08:52;;;;;;;23.20;17.90;;;;;;;21.32;100.00;99206.63;1783553;78;20983;-82
2022/07/16 08:11:20;;;;;;;23.50;18.02;;;;;;;21.37;100.00;99203.91;1784855;79;20987;-84
2022/07/16 08:13:46;;;;;;;24.15;16.95;;;;;;;21.44;100.00;99192.67;1802889;79;20975;-79
2022/07/16 08:16:13;;;;;;;21.05;16.50;;;;;;;21.52;100.00;99197.72;1810574;79;20976;-80
2022/07/16 08:18:40;;;;;;;21.70;16.30;;;;;;;21.64;100.00;99189.81;1810807;79;21088;-80
2022/07/16 08:21:07;;;;;;;21.17;16.62;;;;;;;21.76;100.00;99191.30;1810664;79;21453;-79
2022/07/16 08:26:20;;;;;;;21.90;16.37;;;;;;;22.09;100.00;99181.00;1805021;79;20987;-76
2022/07/16 08:28:47;;;;;;;21.33;15.93;;;;;;;22.31;100.00;99189.66;1778337;81;21492;-76
2022/07/16 08:31:14;;;;;;;20.02;15.43;;;;;;;22.46;100.00;99184.22;1778350;81;20998;-77
2022/07/16 08:33:42;;;;;;;18.32;14.00;;;;;;;22.55;100.00;99206.56;1778430;81;21031;-78
2022/07/16 08:36:09;;;;;;;17.85;13.45;;;;;;;22.57;100.00;99218.13;1778724;80;20990;-83
2022/07/16 08:38:36;;;;;;;19.07;12.53;;;;;;;22.66;100.00;99231.66;1778926;80;21050;-81
2022/07/16 08:41:03;;;;;;;17.15;12.37;;;;;;;22.79;100.00;99239.14;1777495;79;20997;-81
2022/07/16 08:43:30;;;;;;;15.50;11.78;;;;;;;22.90;100.00;99241.66;1785542;79;21098;-79
2022/07/16 08:45:58;;;;;;;17.52;12.60;;;;;;;23.06;100.00;99247.25;1809951;79;21034;-80
2022/07/16 08:48:25;;;;;;;15.78;12.03;;;;;;;23.24;100.00;99254.16;1810452;79;21019;-79
2022/07/16 08:50:55;;;;;;;16.82;12.88;;;;;;;23.34;100.00;99268.50;1810146;79;21553;-80
2022/07/16 08:53:24;;;;;;;24.85;13.90;;;;;;;23.43;100.00;99270.45;1810733;79;20984;-80
2022/07/16 08:55:52;;;;;;;43.08;26.00;;;;;;;23.51;100.00;99277.34;1810937;79;20988;-83
2022/07/16 08:58:20;;;;;;;23.77;16.50;;;;;;;23.55;100.00;99286.75;1809366;79;21007;-83
2022/07/16 09:00:46;;;;;;;21.68;15.98;;;;;;;23.58;100.00;99293.64;1809508;79;21801;-84
2022/07/16 09:03:14;;;;;;;23.02;17.80;;;;;;;23.70;100.00;99301.91;1809649;79;21031;-81
2022/07/16 09:05:42;;;;;;;25.23;18.80;;;;;;;23.90;100.00;99302.22;1809904;79;21015;-75
2022/07/16 09:08:09;;;;;;;22.95;17.25;;;;;;;24.07;100.00;99311.05;1808740;79;21510;-78
2022/07/16 09:10:37;;;;;;;20.70;14.50;;;;;;;24.20;100.00;99317.36;1809843;79;21026;-75
2022/07/16 09:13:05;;;;;;;20.60;15.03;;;;;;;24.33;100.00;99324.80;1809811;79;20992;-77
2022/07/16 09:15:37;;;;;;;20.68;15.08;;;;;;;24.47;100.00;99338.86;1810030;79;20954;-75
2022/07/16 09:18:23;;;;;;;27.20;20.17;;;;;;;24.62;100.00;99341.62;1810564;79;21039;-82
2022/07/16 09:20:56;;;;;;;32.60;26.52;;;;;;;24.84;100.00;99346.78;1795845;79;21031;-77
2022/07/16 09:23:35;;;;;;;25.25;19.05;;;;;;;25.10;100.00;99362.72;1797819;79;21024;-81
2022/07/16 09:26:07;;;;;;;20.15;13.93;;;;;;;25.27;100.00;99374.85;1794495;79;20940;-81
2022/07/16 09:28:47;;;;;;;21.33;12.80;;;;;;;25.31;100.00;99384.23;1757123;81;21466;-82
2022/07/16 09:31:36;;;;;;;16.97;11.90;;;;;;;25.30;100.00;99412.17;1757678;81;21006;-82
2022/07/16 09:34:08;;;;;;;16.93;11.10;;;;;;;25.29;100.00;99429.34;1754947;81;21015;-82
2022/07/16 09:36:36;;;;;;;17.25;12.05;;;;;;;25.30;100.00;99439.84;1756639;81;21048;-81
2022/07/16 09:39:03;;;;;;;19.23;13.80;;;;;;;25.41;100.00;99447.01;1757628;81;21003;-74
2022/07/16 09:41:43;;;;;;;24.80;18.82;;;;;;;25.52;100.00;99451.94;1759625;81;20983;-77
2022/07/16 09:44:16;;;;;;;31.27;24.52;;;;;;;25.46;100.00;99469.66;1733981;82;20988;-75
2022/07/16 09:47:00;;;;;;;28.40;20.95;;;;;;;25.36;100.00;99480.23;1734500;82;20942;-78
2022/07/16 09:49:29;;;;;;;33.98;24.67;;;;;;;25.18;100.00;99494.09;1700558;84;21343;-77
2022/07/16 09:51:56;;;;;;;28.57;20.70;;;;;;;24.94;100.00;99498.02;1696244;84;21524;-77
2022/07/16 09:54:31;;;;;;;28.75;19.37;;;;;;;24.80;100.00;99500.52;1700155;84;21501;-75
2022/07/16 09:57:13;;;;;;;24.30;17.65;;;;;;;24.68;100.00;99491.69;1656470;86;21121;-78
2022/07/16 09:59:40;;;;;;;49.53;44.18;;;;;;;24.59;100.00;99489.47;1671232;85;21061;-78
2022/07/16 10:02:08;;;;;;;411.50;370.23;;;;;;;24.57;100.00;99486.73;1670660;86;21072;-76
2022/07/16 10:04:35;;;;;;;150.70;135.85;;;;;;;24.58;100.00;99487.83;1672082;86;21047;-81
2022/07/16 10:07:03;;;;;;;59.95;53.98;;;;;;;24.63;100.00;99490.59;1670459;86;21054;-79
2022/07/16 10:09:30;;;;;;;43.85;39.03;;;;;;;24.76;100.00;99480.90;1670275;86;21050;-78
2022/07/16 10:12:09;;;;;;;42.98;35.38;;;;;;;25.16;100.00;99470.02;1670112;86;21014;-78
2022/07/16 10:14:40;;;;;;;28.85;22.00;;;;;;;25.76;100.00;99472.83;1661219;86;21049;-77
2022/07/16 10:17:17;;;;;;;22.17;15.55;;;;;;;26.46;100.00;99490.66;1667778;86;21119;-78
2022/07/16 10:19:44;;;;;;;61.98;55.83;;;;;;;26.97;100.00;99533.78;1613339;89;21095;-78
2022/07/16 10:22:18;;;;;;;38.17;33.50;;;;;;;27.48;100.00;99552.41;1613759;89;21082;-76
2022/07/16 10:24:49;;;;;;;24.55;17.92;;;;;;;27.94;100.00;99574.94;1606700;89;21116;-75
2022/07/16 10:27:35;;;;;;;186.30;166.20;;;;;;;28.45;100.00;99602.55;1563783;91;21080;-78
2022/07/16 10:30:26;;;;;;;73.57;66.50;;;;;;;28.76;100.00;99632.73;1489953;96;21539;-76
2022/07/16 10:33:10;;;;;;;35.73;30.15;;;;;;;28.78;100.00;99663.28;1488682;96;21946;-75
2022/07/16 10:35:46;;;;;;;27.60;19.17;;;;;;;28.72;100.00;99686.75;1489081;96;21197;-78
2022/07/16 10:38:23;;;;;;;24.98;18.12;;;;;;;28.75;100.00;99681.14;1465609;96;21122;-75
2022/07/16 10:41:15;;;;;;;25.97;19.62;;;;;;;28.90;100.00;99693.44;1499032;96;21138;-78
2022/07/16 10:43:42;;;;;;;101.70;90.28;;;;;;;29.12;100.00;99700.33;1500328;96;21129;-79
2022/07/16 10:46:10;;;;;;;120.00;108.42;;;;;;;29.30;100.00;99705.05;1500436;96;21145;-75
2022/07/16 10:48:42;;;;;;;67.75;60.55;;;;;;;29.40;100.00;99715.20;1500616;96;21120;-74
2022/07/16 10:51:22;;;;;;;33.70;26.15;;;;;;;29.45;100.00;99726.84;1500659;96;21153;-78
2022/07/16 10:54:04;;;;;;;35.33;30.45;;;;;;;29.58;100.00;99717.67;1509227;95;21118;-78
2022/07/16 10:56:49;;;;;;;30.85;23.20;;;;;;;29.79;100.00;99729.31;1519946;94;21280;-77
2022/07/16 10:59:22;;;;;;;33.88;20.57;;;;;;;29.94;100.00;99734.33;1548649;92;21045;-78
2022/07/16 11:01:51;;;;;;;29.42;20.45;;;;;;;30.01;100.00;99741.72;1557472;92;21106;-76
2022/07/16 11:04:40;;;;;;;31.45;23.42;;;;;;;30.12;100.00;99751.55;1557347;92;21565;-76
2022/07/16 11:07:11;;;;;;;26.77;19.50;;;;;;;30.24;100.00;99744.91;1553013;92;21073;-77
2022/07/16 11:09:41;;;;;;;25.48;17.75;;;;;;;30.36;100.00;99756.13;1543725;92;21053;-77
2022/07/16 11:12:14;;;;;;;26.52;17.50;;;;;;;30.37;100.00;99761.98;1557284;92;21077;-75
2022/07/16 11:14:44;;;;;;;26.27;19.62;;;;;;;30.43;100.00;99760.14;1557072;92;21668;-76
2022/07/16 11:17:13;;;;;;;28.32;18.25;;;;;;;30.50;100.00;99772.28;1555731;92;21097;-79
2022/07/16 11:19:48;;;;;;;20.92;15.55;;;;;;;30.49;100.00;99772.02;1556057;92;21092;-79
2022/07/16 11:22:20;;;;;;;24.12;17.55;;;;;;;30.59;100.00;99769.02;1462343;98;21133;-80
2022/07/16 11:24:53;;;;;;;22.00;15.68;;;;;;;30.77;100.00;99778.97;1468905;98;21202;-79
2022/07/16 11:27:35;;;;;;;24.52;18.20;;;;;;;30.92;100.00;99775.03;1492631;95;21072;-79